createdAt,value
2022-08-14T00:01:54.856Z,76058.09
2022-08-14T00:04:34.573Z,76066.06
2022-08-14T00:07:11.093Z,76064.06
2022-08-14T00:09:56.395Z,76074.00
2022-08-14T00:12:33.683Z,76076.00
2022-08-14T00:15:15.158Z,76083.94
2022-08-14T00:17:48.214Z,76087.91
2022-08-14T00:20:31.073Z,76076.00
2022-08-14T00:23:16.335Z,76091.88
2022-08-14T00:25:59.052Z,76099.81
2022-08-14T00:28:34.933Z,76105.78
2022-08-14T00:31:02.203Z,76107.78
2022-08-14T00:33:52.533Z,76107.78
2022-08-14T00:36:37.265Z,76115.72
2022-08-14T00:39:02.268Z,76125.66
2022-08-14T00:41:33.461Z,76123.66
2022-08-14T00:44:01.459Z,76117.72
2022-08-14T00:46:33.218Z,76123.66
2022-08-14T00:49:00.870Z,76125.66
2022-08-14T00:51:34.873Z,76127.66
2022-08-14T00:54:20.838Z,76125.66
2022-08-14T00:56:55.706Z,76133.59
2022-08-14T00:59:25.155Z,76137.59
2022-08-14T01:01:57.654Z,76131.63
2022-08-14T01:04:38.064Z,76135.59
2022-08-14T01:07:19.798Z,76141.56
2022-08-14T01:09:58.885Z,76141.56
2022-08-14T01:12:30.017Z,76139.56
2022-08-14T01:14:59.048Z,76145.53
2022-08-14T01:17:50.780Z,76133.59
2022-08-14T01:20:39.674Z,76125.66
2022-08-14T01:23:15.649Z,76129.63
2022-08-14T01:25:46.006Z,76139.56
2022-08-14T01:28:47.356Z,76145.53
2022-08-14T01:30:59.852Z,76151.50
2022-08-14T01:33:59.808Z,76147.50
2022-08-14T01:36:23.281Z,76143.53
2022-08-14T01:38:52.005Z,76147.50
2022-08-14T01:41:23.086Z,76147.50
2022-08-14T01:44:01.547Z,76137.59
2022-08-14T01:46:36.726Z,76135.59
2022-08-14T01:49:08.880Z,76127.66
2022-08-14T01:51:37.423Z,76129.63
2022-08-14T01:54:09.394Z,76127.66
2022-08-14T01:56:40.999Z,76117.72
2022-08-14T01:59:18.217Z,76107.78
2022-08-14T02:01:51.426Z,76099.81
2022-08-14T02:04:54.686Z,76093.88
2022-08-14T02:07:15.694Z,76095.84
2022-08-14T02:09:42.843Z,76091.88
2022-08-14T02:12:09.699Z,76089.91
2022-08-14T02:15:00.163Z,76095.84
2022-08-14T02:17:30.863Z,76089.91
2022-08-14T02:19:57.871Z,76072.00
2022-08-14T02:22:29.096Z,76072.00
2022-08-14T02:25:00.798Z,76068.03
2022-08-14T02:28:24.969Z,76066.06
2022-08-14T02:30:16.397Z,76072.00
2022-08-14T02:32:44.620Z,76050.16
2022-08-14T02:35:19.159Z,76056.13
2022-08-14T02:37:49.886Z,76052.16
2022-08-14T02:40:31.829Z,76044.19
2022-08-14T02:42:59.944Z,76052.16
2022-08-14T02:45:44.203Z,76058.09
2022-08-14T02:49:03.871Z,76050.16
2022-08-14T02:51:01.108Z,76042.22
2022-08-14T02:53:29.752Z,76040.22
2022-08-14T02:56:02.879Z,76038.22
2022-08-14T02:58:42.380Z,76040.22
2022-08-14T03:01:10.437Z,76038.22
2022-08-14T03:03:38.855Z,76030.28
2022-08-14T03:06:09.068Z,76038.22
2022-08-14T03:08:38.472Z,76026.31
2022-08-14T03:11:09.348Z,76026.31
2022-08-14T03:13:45.359Z,76024.31
2022-08-14T03:16:19.938Z,76024.31
2022-08-14T03:18:56.397Z,76026.31
2022-08-14T03:21:26.910Z,76014.41
2022-08-14T03:24:21.690Z,76016.38
2022-08-14T03:26:57.682Z,76002.47
2022-08-14T03:29:26.227Z,76016.38
2022-08-14T03:31:53.489Z,76018.38
2022-08-14T03:34:24.641Z,76012.41
2022-08-14T03:37:52.043Z,76012.41
2022-08-14T03:39:59.228Z,76002.47
2022-08-14T03:42:31.132Z,75992.53
2022-08-14T03:45:18.801Z,75998.50
2022-08-14T03:47:58.909Z,76006.44
2022-08-14T03:50:31.633Z,76004.47
2022-08-14T03:53:03.262Z,76008.44
2022-08-14T03:55:31.038Z,76002.47
2022-08-14T03:57:58.428Z,76006.44
2022-08-14T04:00:45.163Z,76000.47
2022-08-14T04:03:18.018Z,76006.44
2022-08-14T04:05:48.842Z,76006.44
2022-08-14T04:08:28.932Z,76002.47
2022-08-14T04:10:58.529Z,76010.41
2022-08-14T04:13:28.052Z,76008.44
2022-08-14T04:16:02.413Z,76004.47
2022-08-14T04:18:32.485Z,76016.38
2022-08-14T04:21:01.090Z,76024.31
2022-08-14T04:23:29.719Z,76028.31
2022-08-14T04:26:01.027Z,76022.34
2022-08-14T04:29:08.190Z,76014.41
2022-08-14T04:31:15.329Z,76012.41
2022-08-14T04:33:42.699Z,76022.34
2022-08-14T04:36:16.064Z,76022.34
2022-08-14T04:39:03.263Z,76010.41
2022-08-14T04:41:48.274Z,76002.47
2022-08-14T04:44:36.116Z,75990.56
2022-08-14T04:47:22.606Z,75982.59
2022-08-14T04:49:57.219Z,75974.66
2022-08-14T04:52:24.688Z,75968.69
2022-08-14T04:54:51.521Z,75954.78
2022-08-14T04:57:18.054Z,75950.81
2022-08-14T04:59:45.893Z,75952.81
2022-08-14T05:02:13.809Z,75950.81
2022-08-14T05:04:45.220Z,75938.91
2022-08-14T05:07:12.146Z,75925.00
2022-08-14T05:09:47.725Z,75930.94
2022-08-14T05:13:10.743Z,75919.03
2022-08-14T05:15:01.408Z,75907.09
2022-08-14T05:17:32.227Z,75893.19
2022-08-14T05:21:55.359Z,75885.25
2022-08-14T05:22:59.767Z,75867.38
2022-08-14T05:25:33.576Z,75859.41
2022-08-14T05:28:11.567Z,75853.47
2022-08-14T05:30:43.682Z,75845.50
2022-08-14T05:33:12.718Z,75839.56
2022-08-14T05:35:39.339Z,75821.69
2022-08-14T05:38:30.668Z,75815.72
2022-08-14T05:40:58.440Z,75811.75
2022-08-14T05:43:25.088Z,75807.75
2022-08-14T05:46:10.592Z,75799.81
2022-08-14T05:48:43.249Z,75797.84
2022-08-14T05:51:10.148Z,75811.75
2022-08-14T05:53:42.341Z,75819.69
2022-08-14T05:56:09.448Z,75829.63
2022-08-14T05:58:41.310Z,75831.59
2022-08-14T06:01:09.612Z,75839.56
2022-08-14T06:03:37.026Z,75839.56
2022-08-14T06:06:07.485Z,75835.59
2022-08-14T06:08:41.307Z,75835.59
2022-08-14T06:11:09.475Z,75829.63
2022-08-14T06:13:44.929Z,75821.69
2022-08-14T06:16:15.071Z,75811.75
2022-08-14T06:18:47.429Z,75783.94
2022-08-14T06:21:15.958Z,75754.13
2022-08-14T06:23:44.129Z,75760.09
2022-08-14T06:26:15.512Z,75732.28
2022-08-14T06:28:45.419Z,75704.47
2022-08-14T06:31:12.291Z,75678.63
2022-08-14T06:35:02.857Z,75654.78
2022-08-14T06:36:25.458Z,75628.97
2022-08-14T06:38:54.371Z,75609.09
2022-08-14T06:41:56.925Z,75581.28
2022-08-14T06:44:10.067Z,75577.31
2022-08-14T06:46:37.745Z,75565.41
2022-08-14T06:49:05.135Z,75571.34
2022-08-14T06:51:38.665Z,75563.41
2022-08-14T06:54:11.279Z,75557.44
2022-08-14T06:56:38.815Z,75547.50
2022-08-14T06:59:19.539Z,75543.53
2022-08-14T07:02:05.267Z,75537.59
2022-08-14T07:04:50.254Z,75529.63
2022-08-14T07:07:16.756Z,75499.84
2022-08-14T07:09:51.252Z,75491.88
2022-08-14T07:12:54.891Z,75474.00
2022-08-14T07:15:06.903Z,75487.91
2022-08-14T07:17:34.459Z,75487.91
2022-08-14T07:20:04.467Z,75474.00
2022-08-14T07:22:56.285Z,75466.06
2022-08-14T07:25:20.275Z,75446.19
2022-08-14T07:27:46.890Z,75430.31
2022-08-14T07:30:34.207Z,75412.44
2022-08-14T07:33:01.022Z,75394.56
2022-08-14T07:35:37.400Z,75388.59
2022-08-14T07:38:18.580Z,75372.69
2022-08-14T07:40:47.788Z,75352.84
2022-08-14T07:43:21.854Z,75323.03
2022-08-14T07:45:50.686Z,75350.84
2022-08-14T07:48:18.021Z,75350.84
2022-08-14T07:50:51.870Z,75350.84
2022-08-14T07:53:19.370Z,75358.78
2022-08-14T07:55:46.654Z,75338.94
2022-08-14T07:58:34.510Z,75315.09
2022-08-14T08:01:07.399Z,75291.25
2022-08-14T08:03:40.468Z,75283.31
2022-08-14T08:06:17.557Z,75271.38
2022-08-14T08:08:58.879Z,75241.59
2022-08-14T08:11:34.648Z,75237.63
2022-08-14T08:14:17.621Z,75215.78
2022-08-14T08:16:47.438Z,75195.91
2022-08-14T08:19:19.105Z,75176.03
2022-08-14T08:21:47.129Z,75150.22
2022-08-14T08:24:19.797Z,75102.53
2022-08-14T08:26:47.679Z,75104.53
2022-08-14T08:29:25.076Z,75082.69
2022-08-14T08:32:01.881Z,75076.72
2022-08-14T08:34:46.123Z,75066.78
2022-08-14T08:37:13.939Z,75054.88
2022-08-14T08:40:01.635Z,75023.09
2022-08-14T08:42:31.509Z,74995.28
2022-08-14T08:45:06.098Z,74989.34
2022-08-14T08:47:41.601Z,74959.53
2022-08-14T08:50:31.372Z,74925.78
2022-08-14T08:53:05.819Z,74903.91
2022-08-14T08:55:35.407Z,74880.09
2022-08-14T08:58:16.269Z,74882.06
2022-08-14T09:00:49.415Z,74830.44
2022-08-14T09:03:22.922Z,74828.44
2022-08-14T09:05:54.477Z,74818.50
2022-08-14T09:08:31.400Z,74796.66
2022-08-14T09:11:19.636Z,74778.78
2022-08-14T09:13:49.663Z,74745.03
2022-08-14T09:16:21.744Z,74719.22
2022-08-14T09:18:50.294Z,74739.06
2022-08-14T09:21:21.295Z,74723.19
2022-08-14T09:24:28.093Z,74737.09
2022-08-14T09:26:39.847Z,74741.06
2022-08-14T09:29:07.323Z,74713.25
2022-08-14T09:31:53.307Z,74707.28
2022-08-14T09:34:37.019Z,74691.41
2022-08-14T09:37:43.687Z,74673.53
2022-08-14T09:40:38.778Z,74675.50
2022-08-14T09:43:23.899Z,74671.53
2022-08-14T09:45:52.893Z,74665.59
2022-08-14T09:48:27.463Z,74639.75
2022-08-14T09:50:58.121Z,74655.66
2022-08-14T09:54:19.067Z,74679.47
2022-08-14T09:56:56.585Z,74671.53
2022-08-14T09:59:27.821Z,74667.56
2022-08-14T10:01:57.138Z,74655.66
2022-08-14T10:04:35.026Z,74651.69
2022-08-14T10:07:06.264Z,74635.78
2022-08-14T10:09:59.589Z,74619.91
2022-08-14T10:13:05.963Z,74609.97
2022-08-14T10:15:45.900Z,74604.00
2022-08-14T10:18:17.658Z,74584.16
2022-08-14T10:20:55.364Z,74558.34
2022-08-14T10:23:24.632Z,74560.31
2022-08-14T10:25:59.063Z,74528.56
2022-08-14T10:28:39.170Z,74504.72
2022-08-14T10:31:17.179Z,74492.81
2022-08-14T10:33:59.197Z,74504.72
2022-08-14T10:36:35.234Z,74506.69
2022-08-14T10:39:16.600Z,74488.81
2022-08-14T10:41:48.494Z,74468.97
2022-08-14T10:44:24.517Z,74474.94
2022-08-14T10:47:40.340Z,74484.84
2022-08-14T10:49:49.987Z,74465.00
2022-08-14T10:52:22.720Z,74437.19
2022-08-14T10:54:56.392Z,74429.25
2022-08-14T10:57:27.676Z,74425.28
2022-08-14T10:59:58.470Z,74429.25
2022-08-14T11:02:44.614Z,74433.22
2022-08-14T11:05:18.477Z,74423.28
2022-08-14T11:07:56.844Z,74429.25
2022-08-14T11:10:46.783Z,74401.44
2022-08-14T11:13:24.198Z,74367.69
2022-08-14T11:15:52.799Z,74391.53
2022-08-14T11:18:20.500Z,74387.53
2022-08-14T11:20:59.692Z,74377.63
2022-08-14T11:23:28.409Z,74363.72
2022-08-14T11:26:07.142Z,74373.66
2022-08-14T11:28:46.234Z,74373.66
2022-08-14T11:31:14.426Z,74355.78
2022-08-14T11:33:43.014Z,74347.81
2022-08-14T11:36:18.756Z,74339.88
2022-08-14T11:38:46.707Z,74320.03
2022-08-14T11:41:17.170Z,74314.06
2022-08-14T11:43:55.824Z,74324.00
2022-08-14T11:46:30.641Z,74355.78
2022-08-14T11:49:05.543Z,74339.88
2022-08-14T11:51:35.952Z,74337.91
2022-08-14T11:54:06.218Z,74310.09
2022-08-14T11:56:41.340Z,74333.94
2022-08-14T11:59:18.000Z,74324.00
2022-08-14T12:01:48.827Z,74320.03
2022-08-14T12:04:32.449Z,74351.81
2022-08-14T12:07:01.810Z,74335.91
2022-08-14T12:09:33.822Z,74318.03
2022-08-14T12:12:02.571Z,74327.97
2022-08-14T12:14:35.046Z,74341.88
2022-08-14T12:17:12.038Z,74339.88
2022-08-14T12:19:45.422Z,74325.97
2022-08-14T12:22:12.239Z,74316.06
2022-08-14T12:24:52.481Z,74288.25
2022-08-14T12:27:25.134Z,74266.41
2022-08-14T12:29:53.515Z,74252.50
2022-08-14T12:32:20.124Z,74256.47
2022-08-14T12:34:54.414Z,74250.53
2022-08-14T12:37:29.336Z,74252.50
2022-08-14T12:39:57.076Z,74278.31
2022-08-14T12:42:37.894Z,74260.44
2022-08-14T12:45:08.663Z,74250.53
2022-08-14T12:47:35.421Z,74280.31
2022-08-14T12:50:02.440Z,74254.50
2022-08-14T12:52:47.519Z,74232.66
2022-08-14T12:55:22.699Z,74218.75
2022-08-14T12:58:02.511Z,74190.94
2022-08-14T13:01:14.319Z,74183.00
2022-08-14T13:03:41.496Z,74181.00
2022-08-14T13:06:10.677Z,74177.03
2022-08-14T13:08:37.635Z,74171.09
2022-08-14T13:11:14.949Z,74216.75
2022-08-14T13:13:44.827Z,74232.66
2022-08-14T13:16:20.276Z,74220.72
2022-08-14T13:19:01.792Z,74200.88
2022-08-14T13:21:31.766Z,74186.97
2022-08-14T13:24:20.273Z,74196.91
2022-08-14T13:26:51.839Z,74200.88
2022-08-14T13:29:23.182Z,74220.72
2022-08-14T13:31:55.073Z,74210.81
2022-08-14T13:34:24.006Z,74192.94
2022-08-14T13:36:59.057Z,74186.97
2022-08-14T13:39:31.508Z,74188.97
2022-08-14T13:42:10.926Z,74179.03
2022-08-14T13:44:42.590Z,74145.28
2022-08-14T13:47:09.820Z,74157.19
2022-08-14T13:49:38.135Z,74177.03
2022-08-14T13:52:48.342Z,74157.19
2022-08-14T13:55:01.438Z,74175.06
2022-08-14T13:57:30.481Z,74165.13
2022-08-14T14:00:01.506Z,74135.34
2022-08-14T14:02:33.974Z,74111.50
2022-08-14T14:05:03.433Z,74105.56
2022-08-14T14:07:33.821Z,74089.66
2022-08-14T14:10:09.675Z,74069.81
2022-08-14T14:12:55.617Z,74065.84
2022-08-14T14:15:28.456Z,74079.75
2022-08-14T14:18:01.212Z,74061.88
2022-08-14T14:20:34.906Z,74042.00
2022-08-14T14:23:09.666Z,74044.00
2022-08-14T14:25:45.788Z,74040.03
2022-08-14T14:28:16.547Z,74053.94
2022-08-14T14:30:57.494Z,74071.81
2022-08-14T14:33:47.316Z,74065.84
2022-08-14T14:36:23.384Z,74085.69
2022-08-14T14:38:57.963Z,74095.63
2022-08-14T14:41:37.928Z,74083.72
2022-08-14T14:44:16.492Z,74079.75
2022-08-14T14:46:50.171Z,74063.84
2022-08-14T14:49:21.671Z,74051.94
2022-08-14T14:51:51.625Z,74032.09
2022-08-14T14:54:31.802Z,74038.03
2022-08-14T14:57:05.064Z,74044.00
2022-08-14T14:59:37.509Z,74032.09
2022-08-14T15:02:09.258Z,73936.78
2022-08-14T15:04:38.298Z,73881.19
2022-08-14T15:07:06.418Z,73845.44
2022-08-14T15:09:34.012Z,73827.56
2022-08-14T15:12:00.794Z,73769.97
2022-08-14T15:14:54.749Z,73684.59
2022-08-14T15:17:21.060Z,73615.13
2022-08-14T15:19:53.767Z,73623.06
2022-08-14T15:22:25.299Z,73656.81
2022-08-14T15:24:52.209Z,73567.47
2022-08-14T15:27:26.342Z,73355.03
2022-08-14T15:29:53.637Z,73216.06
2022-08-14T15:32:23.201Z,73194.22
2022-08-14T15:34:51.836Z,73164.44
2022-08-14T15:37:22.764Z,73100.91
2022-08-14T15:39:52.435Z,73152.53
2022-08-14T15:42:20.531Z,73071.13
2022-08-14T15:44:56.781Z,73035.41
2022-08-14T15:47:27.976Z,73114.81
2022-08-14T15:49:59.363Z,72985.78
2022-08-14T15:52:32.660Z,73049.31
2022-08-14T15:55:08.824Z,73033.41
2022-08-14T15:57:37.191Z,73047.31
2022-08-14T16:00:40.853Z,73200.19
2022-08-14T16:03:12.728Z,73418.56
2022-08-14T16:05:43.614Z,73611.13
2022-08-14T16:08:28.898Z,73789.84
2022-08-14T16:10:58.117Z,73901.03
2022-08-14T16:13:39.834Z,73964.56
2022-08-14T16:16:34.655Z,74024.13
2022-08-14T16:19:10.884Z,74055.91
2022-08-14T16:22:01.199Z,74065.84
2022-08-14T16:24:33.252Z,74081.72
2022-08-14T16:27:01.400Z,74097.63
2022-08-14T16:29:30.434Z,74107.53
2022-08-14T16:31:59.556Z,74109.53
2022-08-14T16:34:46.784Z,74121.44
2022-08-14T16:37:16.685Z,74153.22
2022-08-14T16:39:43.760Z,74135.34
2022-08-14T16:42:39.119Z,74125.41
2022-08-14T16:45:00.106Z,74129.38
2022-08-14T16:47:34.873Z,74143.28
2022-08-14T16:50:08.930Z,74135.34
2022-08-14T16:52:44.897Z,74111.50
2022-08-14T16:55:22.447Z,74121.44
2022-08-14T16:57:58.807Z,74121.44
2022-08-14T17:00:28.451Z,74119.47
2022-08-14T17:03:04.834Z,74127.41
2022-08-14T17:05:38.280Z,74139.31
2022-08-14T17:08:23.986Z,74149.25
2022-08-14T17:10:52.231Z,74139.31
2022-08-14T17:13:21.079Z,74127.41
2022-08-14T17:16:24.575Z,74123.44
2022-08-14T17:19:00.655Z,74111.50
2022-08-14T17:21:41.023Z,74107.53
2022-08-14T17:24:56.789Z,74095.63
2022-08-14T17:26:59.833Z,74111.50
2022-08-14T17:29:31.226Z,74115.50
2022-08-14T17:34:53.337Z,74244.56
2022-08-14T17:37:35.908Z,74318.03
2022-08-14T17:40:20.839Z,74443.16
2022-08-14T17:42:51.165Z,74522.59
2022-08-14T17:45:26.823Z,74643.75
2022-08-14T17:47:59.293Z,74711.25
2022-08-14T17:50:59.912Z,74804.63
2022-08-14T17:53:27.300Z,74866.19
2022-08-14T17:56:02.511Z,74886.03
2022-08-14T17:58:44.887Z,74901.94
2022-08-14T18:01:14.139Z,74895.97
2022-08-14T18:03:53.496Z,74905.91
2022-08-14T18:06:40.098Z,74937.69
2022-08-14T18:09:25.980Z,74977.41
2022-08-14T18:12:01.592Z,75021.09
2022-08-14T18:14:32.205Z,75019.13
2022-08-14T18:17:01.055Z,75038.97
2022-08-14T18:19:29.688Z,75052.88
2022-08-14T18:21:58.347Z,75058.84
2022-08-14T18:24:29.554Z,75068.78
2022-08-14T18:27:22.778Z,75082.69
2022-08-14T18:29:58.051Z,75082.69
2022-08-14T18:32:27.413Z,75078.72
2022-08-14T18:35:10.998Z,75078.72
2022-08-14T18:37:40.999Z,75092.63
2022-08-14T18:40:17.838Z,75088.66
2022-08-14T18:42:49.099Z,75102.53
2022-08-14T18:45:28.595Z,75106.53
2022-08-14T18:48:22.814Z,75092.63
2022-08-14T18:51:04.903Z,75076.72
2022-08-14T18:53:52.131Z,75090.63
2022-08-14T18:56:19.826Z,75080.69
2022-08-14T18:58:58.530Z,75092.63
2022-08-14T19:01:30.085Z,75088.66
2022-08-14T19:03:59.279Z,75086.66
2022-08-14T19:06:44.739Z,75088.66
2022-08-14T19:09:50.322Z,75088.66
2022-08-14T19:12:58.203Z,75080.69
2022-08-14T19:15:31.383Z,75080.69
2022-08-14T19:18:10.946Z,75092.63
2022-08-14T19:20:52.942Z,75096.59
2022-08-14T19:23:23.476Z,75096.59
2022-08-14T19:26:36.199Z,75088.66
2022-08-14T19:29:23.488Z,75088.66
2022-08-14T19:31:55.458Z,75088.66
2022-08-14T19:34:52.300Z,75092.63
2022-08-14T19:37:43.956Z,75090.63
2022-08-14T19:40:15.595Z,75094.59
2022-08-14T19:42:48.979Z,75080.69
2022-08-14T19:45:15.856Z,75082.69
2022-08-14T19:47:42.783Z,75088.66
2022-08-14T19:50:38.254Z,75092.63
2022-08-14T19:53:11.380Z,75106.53
2022-08-14T19:55:45.894Z,75114.47
2022-08-14T19:58:12.940Z,75122.41
2022-08-14T20:00:52.906Z,75122.41
2022-08-14T20:03:23.316Z,75130.34
2022-08-14T20:06:01.306Z,75132.34
2022-08-14T20:10:59.043Z,75128.38
2022-08-14T20:12:00.168Z,75120.44
2022-08-14T20:14:27.934Z,75130.34
2022-08-14T20:17:06.119Z,75120.44
2022-08-14T20:19:37.443Z,75122.41
2022-08-14T20:22:36.947Z,75128.38
2022-08-14T20:25:14.060Z,75118.44
2022-08-14T20:27:45.944Z,75120.44
2022-08-14T20:30:33.415Z,75110.50
2022-08-14T20:33:10.876Z,75120.44
2022-08-14T20:35:44.428Z,75124.41
2022-08-14T20:38:28.627Z,75124.41
2022-08-14T20:40:59.987Z,75124.41
2022-08-14T20:43:51.235Z,75122.41
2022-08-14T20:46:29.380Z,75130.34
2022-08-14T20:49:04.763Z,75124.41
2022-08-14T20:51:43.348Z,75126.38
2022-08-14T20:54:34.461Z,75132.34
2022-08-14T20:57:17.631Z,75134.34
2022-08-14T20:59:52.941Z,75136.31
2022-08-14T21:02:30.722Z,75140.28
2022-08-14T21:05:16.931Z,75140.28
2022-08-14T21:07:50.208Z,75144.25
2022-08-14T21:10:34.231Z,75138.31
2022-08-14T21:14:08.814Z,75134.34
2022-08-14T21:15:56.739Z,75138.31
2022-08-14T21:18:47.688Z,75136.31
2022-08-14T21:21:20.131Z,75140.28
2022-08-14T21:23:55.661Z,75140.28
2022-08-14T21:26:51.189Z,75144.25
2022-08-14T21:29:14.358Z,75138.31
2022-08-14T21:31:42.535Z,75146.25
2022-08-14T21:34:30.853Z,75144.25
2022-08-14T21:36:58.055Z,75150.22
2022-08-14T21:39:24.808Z,75152.22
2022-08-14T21:41:58.382Z,75152.22
2022-08-14T21:44:42.817Z,75164.13
2022-08-14T21:47:12.272Z,75162.13
2022-08-14T21:49:40.248Z,75170.09
2022-08-14T21:52:51.417Z,75160.16
2022-08-14T21:55:12.477Z,75160.16
2022-08-14T21:58:46.357Z,75172.06
2022-08-14T22:00:39.488Z,75174.06
2022-08-14T22:03:17.147Z,75184.00
2022-08-14T22:05:46.768Z,75187.97
2022-08-14T22:08:14.397Z,75199.88
2022-08-14T22:10:46.468Z,75201.88
2022-08-14T22:13:15.925Z,75199.88
2022-08-14T22:15:49.304Z,75217.75
2022-08-14T22:18:20.548Z,75223.72
2022-08-14T22:20:53.840Z,75233.66
2022-08-14T22:23:24.214Z,75237.63
2022-08-14T22:25:51.223Z,75247.56
2022-08-14T22:28:25.281Z,75263.44
2022-08-14T22:30:54.898Z,75267.41
2022-08-14T22:33:31.290Z,75269.41
2022-08-14T22:36:00.449Z,75263.44
2022-08-14T22:38:37.879Z,75271.38
2022-08-14T22:41:27.781Z,75267.41
2022-08-14T22:43:59.283Z,75279.34
2022-08-14T22:46:27.132Z,75275.38
2022-08-14T22:48:55.002Z,75273.38
2022-08-14T22:51:27.569Z,75275.38
2022-08-14T22:54:05.486Z,75287.28
2022-08-14T22:56:33.879Z,75295.22
2022-08-14T22:59:09.606Z,75299.19
2022-08-14T23:01:56.811Z,75317.06
2022-08-14T23:04:35.608Z,75317.06
2022-08-14T23:07:21.688Z,75323.03
2022-08-14T23:09:56.294Z,75327.00
2022-08-14T23:12:27.575Z,75327.00
2022-08-14T23:14:55.687Z,75330.97
2022-08-14T23:17:22.679Z,75334.97
2022-08-14T23:19:49.249Z,75334.97
2022-08-14T23:22:24.410Z,75342.91
2022-08-14T23:24:56.671Z,75342.91
2022-08-14T23:27:31.864Z,75342.91
2022-08-14T23:30:33.914Z,75323.03
2022-08-14T23:33:02.571Z,75329.00
2022-08-14T23:35:33.235Z,75319.06
2022-08-14T23:38:01.951Z,75313.09
2022-08-14T23:40:30.707Z,75317.06
2022-08-14T23:43:09.310Z,75315.09
2022-08-14T23:45:40.232Z,75323.03
2022-08-14T23:48:10.005Z,75327.00
2022-08-14T23:50:41.420Z,75336.94
2022-08-14T23:53:48.035Z,75346.88
2022-08-14T23:56:30.282Z,75358.78
2022-08-14T23:58:59.475Z,75358.78
